Other Surface Observations
Issued by NWS Missoula, MT

Home | Current Version | Previous Version | Text Only | Print | Product List | Glossary On
Versions: 1 2 3 4 5 6 7 8 9 10 11 12 13 14 15 16 17 18 19 20 21 22 23 24 25 26 27 28 29 30 31 32 33 34 35 36 37 38 39 40 41 42 43 44 45 46 47 48 49 50
000
SXUS55 KMSO 251803
OSOMSO
MONTANA AWOS SUMMARY
NATIONAL WEATHER SERVICE MISSOULA MT
1203 PM MDT MON MAY 25 2015

Montana AWOS Reports

LAUREL      |K6S8 251755Z AUTO 00000KT 40SM 16/07 A2993 RMK AO1 T01560072
ROUNDUP     |KRPX 251755Z AUTO 00000KT 40SM 18/07 A2984 RMK AO1 T01780072
EKALAKA     |K97M 251755Z AUTO 01010G14KT 40SM 13/10 A2990 RMK AO1 T01330100
PLAINS      |KS34 251755Z AUTO 00000KT 40SM 18/08 A2991 RMK AO1 T01780083




USA.gov is the U.S. government's official web portal to all federal, state and local government web resources and services.